createdAt,value
2018-07-11T00:00:13.804Z,77.51
2018-07-11T00:01:13.743Z,78.44
2018-07-11T00:02:13.682Z,77.67
2018-07-11T00:03:13.623Z,78.34
2018-07-11T00:04:13.561Z,79.39
2018-07-11T00:05:13.500Z,78.63
2018-07-11T00:06:13.439Z,79.49
2018-07-11T00:07:13.378Z,79.21
2018-07-11T00:08:13.319Z,79.21
2018-07-11T00:09:13.261Z,78.63
2018-07-11T00:10:13.196Z,78.82
2018-07-11T00:11:13.136Z,78.59
2018-07-11T00:12:13.076Z,79.01
2018-07-11T00:13:13.019Z,79.68
2018-07-11T00:14:12.954Z,79.68
2018-07-11T00:15:12.892Z,80.03
2018-07-11T00:16:12.833Z,79.83
2018-07-11T00:17:12.772Z,79.59
2018-07-11T00:18:12.709Z,80.64
2018-07-11T00:19:12.651Z,80.79
2018-07-11T00:20:12.588Z,81.08
2018-07-11T00:21:12.529Z,80.41
2018-07-11T00:22:12.467Z,80.22
2018-07-11T00:23:12.406Z,80.51
2018-07-11T00:24:12.345Z,80.22
2018-07-11T00:25:12.286Z,80.51
2018-07-11T00:26:12.224Z,80.22
2018-07-11T00:27:12.164Z,80.99
2018-07-11T00:28:12.102Z,82.32
2018-07-11T00:29:12.044Z,82.23
2018-07-11T00:30:11.981Z,82.14
2018-07-11T00:31:11.919Z,82.81
2018-07-11T00:32:11.859Z,82.90
2018-07-11T00:33:11.798Z,83.25
2018-07-11T00:34:11.742Z,83.05
2018-07-11T00:35:11.676Z,83.53
2018-07-11T00:36:11.648Z,83.63
2018-07-11T00:37:11.631Z,83.82
2018-07-11T00:38:11.493Z,84.49
2018-07-11T00:39:11.433Z,85.01
2018-07-11T00:40:11.374Z,85.49
2018-07-11T00:41:11.310Z,85.58
2018-07-11T00:42:11.252Z,86.07
2018-07-11T00:43:11.190Z,84.82
2018-07-11T00:44:11.139Z,85.39
2018-07-11T00:45:11.066Z,85.88
2018-07-11T00:46:11.006Z,86.74
2018-07-11T00:47:10.946Z,86.45
2018-07-11T00:48:10.886Z,87.94
2018-07-11T00:49:10.825Z,88.27
2018-07-11T00:50:10.762Z,89.32
2018-07-11T00:51:10.701Z,88.94
2018-07-11T00:52:10.641Z,89.23
2018-07-11T00:53:10.580Z,90.09
2018-07-11T00:54:10.518Z,90.47
2018-07-11T00:55:10.460Z,90.72
2018-07-11T00:56:10.399Z,91.14
2018-07-11T00:57:10.336Z,91.58
2018-07-11T00:58:10.275Z,92.44
2018-07-11T00:59:10.215Z,92.15
2018-07-11T01:00:10.152Z,92.63
2018-07-11T01:01:10.095Z,92.35
2018-07-11T01:02:10.034Z,92.35
2018-07-11T01:03:09.970Z,91.67
2018-07-11T01:04:09.910Z,92.44
2018-07-11T01:05:09.846Z,92.15
2018-07-11T01:06:09.786Z,92.44
2018-07-11T01:07:09.724Z,92.73
2018-07-11T01:08:09.662Z,93.11
2018-07-11T01:09:09.602Z,93.21
2018-07-11T01:10:09.541Z,93.69
2018-07-11T01:11:09.480Z,93.40
2018-07-11T01:12:09.427Z,93.11
2018-07-11T01:13:09.358Z,93.69
2018-07-11T01:14:09.295Z,94.17
2018-07-11T01:15:09.236Z,94.35
2018-07-11T01:16:09.176Z,94.26
2018-07-11T01:17:09.115Z,93.78
2018-07-11T01:18:09.052Z,94.07
2018-07-11T01:19:08.996Z,94.45
2018-07-11T01:20:08.930Z,94.26
2018-07-11T01:21:08.868Z,94.64
2018-07-11T01:22:08.807Z,94.35
2018-07-11T01:23:08.746Z,93.40
2018-07-11T01:24:08.685Z,93.78
2018-07-11T01:25:08.624Z,94.93
2018-07-11T01:26:08.563Z,95.31
2018-07-11T01:27:08.507Z,95.03
2018-07-11T01:28:08.439Z,95.03
2018-07-11T01:29:08.378Z,95.70
2018-07-11T01:30:08.318Z,95.60
2018-07-11T01:31:08.255Z,95.60
2018-07-11T01:32:08.197Z,95.12
2018-07-11T01:33:08.134Z,95.22
2018-07-11T01:34:08.072Z,95.65
2018-07-11T01:35:08.010Z,96.03
2018-07-11T01:36:07.949Z,95.94
2018-07-11T01:37:07.890Z,96.22
2018-07-11T01:38:07.826Z,95.75
2018-07-11T01:39:07.766Z,96.51
2018-07-11T01:40:07.705Z,96.03
2018-07-11T01:41:07.643Z,95.07
2018-07-11T01:42:07.584Z,95.22
2018-07-11T01:43:07.520Z,94.98
2018-07-11T01:44:07.460Z,94.40
2018-07-11T01:45:07.398Z,95.27
2018-07-11T01:46:07.337Z,95.46
2018-07-11T01:47:07.276Z,96.13
2018-07-11T01:48:07.214Z,94.93
2018-07-11T01:49:07.154Z,94.93
2018-07-11T01:50:07.090Z,95.89
2018-07-11T01:51:07.032Z,95.70
2018-07-11T01:52:06.969Z,96.66
2018-07-11T01:53:06.908Z,96.08
2018-07-11T01:54:06.844Z,95.79
2018-07-11T01:55:06.785Z,95.89
2018-07-11T01:56:06.725Z,96.08
2018-07-11T01:57:06.662Z,96.56
2018-07-11T01:58:06.600Z,95.70
2018-07-11T01:59:06.539Z,94.74
2018-07-11T02:00:06.478Z,95.79
2018-07-11T02:01:06.418Z,95.12
2018-07-11T02:02:06.360Z,94.84
2018-07-11T02:03:06.294Z,94.07
2018-07-11T02:04:06.232Z,93.21
2018-07-11T02:05:06.172Z,93.30
2018-07-11T02:06:06.109Z,92.06
2018-07-11T02:07:06.049Z,92.06
2018-07-11T02:08:05.985Z,91.87
2018-07-11T02:09:05.924Z,91.58
2018-07-11T02:10:05.863Z,92.11
2018-07-11T02:11:05.802Z,92.21
2018-07-11T02:12:05.740Z,91.92
2018-07-11T02:13:05.678Z,91.72
2018-07-11T02:14:05.616Z,91.63
2018-07-11T02:15:05.555Z,92.21
2018-07-11T02:16:05.492Z,91.63
2018-07-11T02:17:05.436Z,91.25
2018-07-11T02:18:05.373Z,90.09
2018-07-11T02:19:05.310Z,89.90
2018-07-11T02:20:05.248Z,89.90
2018-07-11T02:21:05.189Z,90.09
2018-07-11T02:22:05.126Z,88.56
2018-07-11T02:23:05.063Z,87.90
2018-07-11T02:24:05.004Z,88.28
2018-07-11T02:25:04.942Z,87.61
2018-07-11T02:26:04.889Z,88.28
2018-07-11T02:27:04.817Z,87.90
2018-07-11T02:28:04.756Z,87.23
2018-07-11T02:29:04.696Z,87.61
2018-07-11T02:30:04.634Z,87.51
2018-07-11T02:31:04.572Z,86.84
2018-07-11T02:32:04.512Z,87.13
2018-07-11T02:33:04.455Z,86.84
2018-07-11T02:34:04.387Z,86.84
2018-07-11T02:35:04.327Z,86.65
2018-07-11T02:36:04.268Z,86.36
2018-07-11T02:37:04.203Z,85.98
2018-07-11T02:38:04.142Z,85.50
2018-07-11T02:39:04.081Z,85.02
2018-07-11T02:40:04.020Z,85.02
2018-07-11T02:41:03.954Z,85.79
2018-07-11T02:42:03.894Z,86.65
2018-07-11T02:43:03.836Z,85.60
2018-07-11T02:44:03.772Z,85.02
2018-07-11T02:45:03.712Z,84.83
2018-07-11T02:46:03.651Z,85.69
2018-07-11T02:47:03.595Z,85.60
2018-07-11T02:48:03.526Z,86.17
2018-07-11T02:49:03.468Z,86.70
2018-07-11T02:50:03.404Z,86.17
2018-07-11T02:51:03.340Z,86.36
2018-07-11T02:52:03.284Z,87.03
2018-07-11T02:53:03.219Z,86.70
2018-07-11T02:54:03.157Z,86.70
2018-07-11T02:55:03.096Z,86.80
2018-07-11T02:56:03.033Z,87.18
2018-07-11T02:57:02.973Z,86.70
2018-07-11T02:58:02.913Z,86.99
2018-07-11T02:59:02.848Z,86.13
2018-07-11T03:00:02.787Z,86.13
2018-07-11T03:01:02.728Z,86.36
2018-07-11T03:02:02.663Z,86.99
2018-07-11T03:03:02.602Z,86.70
2018-07-11T03:04:02.544Z,87.08
2018-07-11T03:05:02.481Z,87.08
2018-07-11T03:06:02.417Z,86.61
2018-07-11T03:07:02.356Z,87.08
2018-07-11T03:08:02.302Z,87.85
2018-07-11T03:09:02.234Z,87.47
2018-07-11T03:10:02.172Z,87.37
2018-07-11T03:11:02.109Z,86.99
2018-07-11T03:12:02.052Z,87.18
2018-07-11T03:13:01.985Z,87.95
2018-07-11T03:14:01.927Z,87.95
2018-07-11T03:15:01.863Z,87.08
2018-07-11T03:16:01.803Z,87.85
2018-07-11T03:17:01.740Z,87.56
2018-07-11T03:18:01.678Z,87.56
2018-07-11T03:19:01.622Z,86.80
2018-07-11T03:20:01.561Z,86.99
2018-07-11T03:21:01.493Z,87.85
2018-07-11T03:22:01.434Z,88.23
2018-07-11T03:23:01.370Z,88.52
2018-07-11T03:24:01.308Z,87.66
2018-07-11T03:25:01.249Z,87.90
2018-07-11T03:26:01.186Z,87.18
2018-07-11T03:27:01.123Z,88.04
2018-07-11T03:28:01.062Z,87.90
2018-07-11T03:29:01.002Z,87.33
2018-07-11T03:30:00.936Z,86.76
2018-07-11T03:31:00.877Z,86.85
2018-07-11T03:32:00.817Z,86.85
2018-07-11T03:33:00.753Z,86.37
2018-07-11T03:34:00.693Z,86.76
2018-07-11T03:35:00.635Z,86.85
2018-07-11T03:36:00.568Z,86.85
2018-07-11T03:37:00.506Z,87.43
2018-07-11T03:38:00.445Z,88.29
2018-07-11T03:39:00.381Z,88.00
2018-07-11T03:40:00.322Z,87.81
2018-07-11T03:41:00.260Z,87.71
2018-07-11T03:42:00.195Z,87.52
2018-07-11T03:43:00.137Z,87.62
2018-07-11T03:44:00.077Z,88.19
2018-07-11T03:45:00.024Z,87.52
2018-07-11T03:45:59.950Z,87.71
2018-07-11T03:46:59.884Z,87.62
2018-07-11T03:47:59.828Z,87.81
2018-07-11T03:48:59.765Z,87.43
2018-07-11T03:49:59.704Z,87.71
2018-07-11T03:50:59.642Z,87.62
2018-07-11T03:51:59.578Z,88.19
2018-07-11T03:52:59.517Z,88.38
2018-07-11T03:53:59.454Z,88.29
2018-07-11T03:54:59.392Z,88.38
2018-07-11T03:55:59.332Z,88.76
2018-07-11T03:56:59.274Z,88.09
2018-07-11T03:57:59.209Z,87.90
2018-07-11T03:58:59.149Z,88.19
2018-07-11T03:59:59.087Z,87.71
2018-07-11T04:00:59.019Z,87.81
2018-07-11T04:01:58.959Z,87.71
2018-07-11T04:02:58.899Z,88.09
2018-07-11T04:03:58.853Z,88.09
2018-07-11T04:04:58.816Z,87.81
2018-07-11T04:05:58.766Z,87.90
2018-07-11T04:06:58.757Z,87.81
2018-07-11T04:07:58.672Z,87.33
2018-07-11T04:08:58.525Z,87.52
2018-07-11T04:09:58.467Z,88.00
2018-07-11T04:10:58.411Z,87.71
2018-07-11T04:11:58.342Z,87.52
2018-07-11T04:12:58.281Z,87.23
2018-07-11T04:13:58.220Z,87.04
2018-07-11T04:14:58.157Z,87.71
2018-07-11T04:15:58.096Z,87.33
2018-07-11T04:16:58.035Z,86.66
2018-07-11T04:17:57.972Z,86.94
2018-07-11T04:18:57.912Z,86.76
2018-07-11T04:19:57.849Z,86.85
2018-07-11T04:20:57.788Z,87.43
2018-07-11T04:21:57.724Z,87.04
2018-07-11T04:22:57.663Z,86.76
2018-07-11T04:23:57.601Z,86.57
2018-07-11T04:24:57.539Z,86.51
2018-07-11T04:25:57.478Z,86.57
2018-07-11T04:26:57.414Z,85.27
2018-07-11T04:27:57.353Z,85.94
2018-07-11T04:28:57.294Z,86.61
2018-07-11T04:29:57.230Z,86.04
2018-07-11T04:30:57.168Z,85.94
2018-07-11T04:31:57.107Z,85.36
2018-07-11T04:32:57.044Z,85.46
2018-07-11T04:33:56.982Z,85.27
2018-07-11T04:34:56.922Z,85.17
2018-07-11T04:35:56.866Z,85.75
2018-07-11T04:36:56.798Z,85.65
2018-07-11T04:37:56.736Z,85.27
2018-07-11T04:38:56.672Z,85.65
2018-07-11T04:39:56.614Z,85.46
2018-07-11T04:40:56.551Z,85.55
2018-07-11T04:41:56.487Z,84.98
2018-07-11T04:42:56.428Z,84.59
2018-07-11T04:43:56.366Z,85.08
2018-07-11T04:44:56.304Z,84.88
2018-07-11T04:45:56.240Z,85.46
2018-07-11T04:46:56.180Z,85.75
2018-07-11T04:47:56.120Z,84.79
2018-07-11T04:48:56.057Z,84.59
2018-07-11T04:49:55.994Z,84.31
2018-07-11T04:50:55.933Z,84.02
2018-07-11T04:51:55.876Z,84.31
2018-07-11T04:52:55.809Z,83.93
2018-07-11T04:53:55.749Z,83.64
2018-07-11T04:54:55.686Z,82.11
2018-07-11T04:55:55.624Z,83.45
2018-07-11T04:56:55.563Z,83.45
2018-07-11T04:57:55.501Z,83.87
2018-07-11T04:58:55.515Z,83.54
2018-07-11T04:59:55.378Z,83.73
2018-07-11T05:00:55.319Z,84.22
2018-07-11T05:01:55.253Z,83.54
2018-07-11T05:02:55.190Z,83.36
2018-07-11T05:03:55.132Z,84.12
2018-07-11T05:04:55.070Z,84.59
2018-07-11T05:05:55.007Z,84.69
2018-07-11T05:06:54.952Z,84.22
2018-07-11T05:07:54.885Z,83.64
2018-07-11T05:08:54.823Z,84.41
2018-07-11T05:09:54.761Z,84.59
2018-07-11T05:10:54.723Z,84.74
2018-07-11T05:11:54.638Z,84.26
2018-07-11T05:12:54.577Z,83.78
2018-07-11T05:13:54.513Z,83.30
2018-07-11T05:14:54.448Z,82.92
2018-07-11T05:15:54.393Z,83.01
2018-07-11T05:16:54.328Z,82.92
2018-07-11T05:17:54.269Z,82.82
2018-07-11T05:18:54.207Z,82.43
2018-07-11T05:19:54.144Z,82.24
2018-07-11T05:20:54.083Z,83.11
2018-07-11T05:21:54.023Z,83.20
2018-07-11T05:22:53.969Z,82.34
2018-07-11T05:23:53.899Z,81.90
2018-07-11T05:24:53.837Z,82.19
2018-07-11T05:25:53.776Z,82.00
2018-07-11T05:26:53.713Z,81.23
2018-07-11T05:27:53.652Z,80.94
2018-07-11T05:28:53.592Z,79.99
2018-07-11T05:29:53.528Z,80.08
2018-07-11T05:30:53.468Z,80.47
2018-07-11T05:31:53.406Z,80.27
2018-07-11T05:32:53.349Z,80.85
2018-07-11T05:33:53.283Z,80.85
2018-07-11T05:34:53.223Z,81.13
2018-07-11T05:35:53.161Z,81.04
2018-07-11T05:36:53.099Z,80.94
2018-07-11T05:37:53.043Z,79.60
2018-07-11T05:38:52.980Z,80.56
2018-07-11T05:39:52.915Z,80.56
2018-07-11T05:40:52.855Z,80.18
2018-07-11T05:41:52.793Z,79.41
2018-07-11T05:42:52.730Z,79.89
2018-07-11T05:43:52.670Z,80.56
2018-07-11T05:44:52.611Z,80.37
2018-07-11T05:45:52.546Z,80.27
2018-07-11T05:46:52.486Z,80.08
2018-07-11T05:47:52.430Z,80.03
2018-07-11T05:48:52.365Z,79.83
2018-07-11T05:49:52.302Z,80.22
2018-07-11T05:50:52.241Z,78.97
2018-07-11T05:51:52.180Z,79.07
2018-07-11T05:52:52.398Z,79.07
2018-07-11T05:53:52.061Z,79.26
2018-07-11T05:54:51.998Z,79.45
2018-07-11T05:55:52.009Z,78.69
2018-07-11T05:56:51.874Z,79.16
2018-07-11T05:57:51.813Z,79.26
2018-07-11T05:58:51.755Z,79.16
2018-07-11T05:59:51.708Z,78.88
2018-07-11T06:00:51.631Z,79.26
2018-07-11T06:01:51.570Z,79.16
2018-07-11T06:02:51.509Z,79.07
2018-07-11T06:03:51.448Z,79.64
2018-07-11T06:04:51.388Z,79.64
2018-07-11T06:05:51.325Z,79.64
2018-07-11T06:06:51.263Z,79.36
2018-07-11T06:07:51.203Z,78.59
2018-07-11T06:08:51.142Z,77.86
2018-07-11T06:09:51.079Z,77.95
2018-07-11T06:10:51.021Z,77.33
2018-07-11T06:11:50.960Z,76.07
2018-07-11T06:12:50.898Z,76.37
2018-07-11T06:13:50.837Z,76.17
2018-07-11T06:14:50.773Z,75.70
2018-07-11T06:15:50.716Z,75.79
2018-07-11T06:16:50.656Z,75.60
2018-07-11T06:17:50.594Z,75.70
2018-07-11T06:18:50.537Z,75.79
2018-07-11T06:19:50.472Z,76.07
2018-07-11T06:20:50.414Z,75.98
2018-07-11T06:21:50.350Z,76.27
2018-07-11T06:22:50.290Z,75.50
2018-07-11T06:23:50.231Z,75.70
2018-07-11T06:24:50.170Z,75.79
2018-07-11T06:25:50.111Z,76.56
2018-07-11T06:26:50.048Z,76.27
2018-07-11T06:27:49.990Z,76.27
2018-07-11T06:28:49.927Z,76.84
2018-07-11T06:29:49.868Z,76.56
2018-07-11T06:30:49.807Z,77.04
2018-07-11T06:31:49.746Z,76.94
2018-07-11T06:32:49.686Z,77.00
2018-07-11T06:33:49.700Z,76.90
2018-07-11T06:34:49.565Z,77.38
2018-07-11T06:35:49.505Z,77.38
2018-07-11T06:36:49.450Z,77.48
2018-07-11T06:37:49.422Z,77.38
2018-07-11T06:38:49.324Z,77.38
2018-07-11T06:39:49.265Z,77.33
2018-07-11T06:40:49.207Z,77.04
2018-07-11T06:41:49.141Z,77.04
2018-07-11T06:42:49.081Z,76.37
2018-07-11T06:43:49.021Z,77.33
2018-07-11T06:44:48.984Z,77.51
2018-07-11T06:45:48.899Z,77.42
2018-07-11T06:46:48.839Z,77.61
2018-07-11T06:47:48.834Z,77.61
2018-07-11T06:48:48.718Z,77.23
2018-07-11T06:49:48.657Z,77.51
2018-07-11T06:50:48.597Z,77.42
2018-07-11T06:51:48.537Z,77.42
2018-07-11T06:52:48.477Z,77.04
2018-07-11T06:53:48.418Z,77.61
2018-07-11T06:54:48.356Z,77.51
2018-07-11T06:55:48.302Z,77.51
2018-07-11T06:56:48.236Z,77.58
2018-07-11T06:57:48.176Z,78.53
2018-07-11T06:58:48.112Z,77.95
2018-07-11T06:59:48.054Z,78.05
2018-07-11T07:00:47.994Z,78.63
2018-07-11T07:01:47.935Z,78.34
2018-07-11T07:02:47.872Z,78.25
2018-07-11T07:03:47.811Z,78.78
2018-07-11T07:04:47.752Z,78.78
2018-07-11T07:05:47.692Z,78.40
2018-07-11T07:06:47.630Z,78.88
2018-07-11T07:07:47.569Z,78.63
2018-07-11T07:08:47.510Z,78.72
2018-07-11T07:09:47.449Z,78.34
2018-07-11T07:10:47.387Z,77.67
2018-07-11T07:11:47.326Z,77.51
2018-07-11T07:12:47.268Z,77.42
2018-07-11T07:13:47.206Z,77.71
2018-07-11T07:14:47.148Z,77.71
2018-07-11T07:15:47.086Z,76.40
2018-07-11T07:16:47.025Z,76.31
2018-07-11T07:17:46.965Z,76.88
2018-07-11T07:18:46.904Z,76.50
2018-07-11T07:19:46.844Z,76.12
2018-07-11T07:20:46.783Z,76.31
2018-07-11T07:21:46.722Z,75.82
2018-07-11T07:22:46.662Z,75.92
2018-07-11T07:23:46.603Z,76.12
2018-07-11T07:24:46.544Z,75.92
2018-07-11T07:25:46.486Z,76.31
2018-07-11T07:26:46.421Z,76.40
2018-07-11T07:27:46.361Z,76.12
2018-07-11T07:28:46.302Z,75.35
2018-07-11T07:29:46.241Z,75.48
2018-07-11T07:30:46.183Z,74.19
2018-07-11T07:31:46.121Z,75.20
2018-07-11T07:32:46.060Z,75.20
2018-07-11T07:33:46.002Z,75.57
2018-07-11T07:34:45.965Z,75.10
2018-07-11T07:35:45.882Z,74.90
2018-07-11T07:36:45.842Z,74.90
2018-07-11T07:37:45.759Z,74.43
2018-07-11T07:38:45.699Z,74.62
2018-07-11T07:39:45.641Z,74.43
2018-07-11T07:40:45.581Z,75.48
2018-07-11T07:41:45.524Z,75.10
2018-07-11T07:42:45.461Z,74.33
2018-07-11T07:43:45.403Z,74.43
2018-07-11T07:44:45.341Z,74.52
2018-07-11T07:45:45.280Z,74.43
2018-07-11T07:46:45.223Z,74.71
2018-07-11T07:47:45.161Z,75.20
2018-07-11T07:48:45.103Z,74.71
2018-07-11T07:49:45.042Z,75.67
2018-07-11T07:50:44.985Z,75.67
2018-07-11T07:51:44.922Z,75.57
2018-07-11T07:52:44.878Z,75.29
2018-07-11T07:53:44.803Z,75.29
2018-07-11T07:54:44.741Z,74.52
2018-07-11T07:55:44.688Z,75.77
2018-07-11T07:56:44.627Z,75.20
2018-07-11T07:57:44.564Z,74.81
2018-07-11T07:58:44.504Z,74.52
2018-07-11T07:59:44.443Z,74.13
2018-07-11T08:00:44.384Z,74.23
2018-07-11T08:01:44.325Z,75.38
2018-07-11T08:02:44.265Z,75.00
2018-07-11T08:03:44.206Z,75.48
2018-07-11T08:04:44.146Z,75.57
2018-07-11T08:05:44.085Z,75.77
2018-07-11T08:06:44.025Z,75.77
2018-07-11T08:07:43.965Z,76.34
2018-07-11T08:08:43.906Z,75.77
2018-07-11T08:09:43.847Z,75.48
2018-07-11T08:10:43.787Z,75.10
2018-07-11T08:11:43.726Z,74.62
2018-07-11T08:12:43.711Z,75.29
2018-07-11T08:13:43.607Z,75.63
2018-07-11T08:14:43.548Z,75.87
2018-07-11T08:15:43.489Z,76.79
2018-07-11T08:16:43.428Z,76.40
2018-07-11T08:17:43.368Z,75.92
2018-07-11T08:18:43.308Z,76.34
2018-07-11T08:19:43.250Z,76.54
2018-07-11T08:20:43.190Z,75.87
2018-07-11T08:21:43.130Z,76.92
2018-07-11T08:22:43.069Z,76.40
2018-07-11T08:23:43.011Z,76.34
2018-07-11T08:24:42.952Z,75.87
2018-07-11T08:25:42.890Z,75.87
2018-07-11T08:26:42.829Z,74.90
2018-07-11T08:27:42.772Z,74.23
2018-07-11T08:28:42.716Z,75.48
2018-07-11T08:29:42.650Z,75.87
2018-07-11T08:30:42.591Z,75.48
2018-07-11T08:31:42.532Z,74.81
2018-07-11T08:32:42.474Z,74.62
2018-07-11T08:33:42.415Z,74.62
2018-07-11T08:34:42.369Z,75.10
2018-07-11T08:35:42.293Z,74.52
2018-07-11T08:36:42.234Z,74.04
2018-07-11T08:37:42.176Z,74.90
2018-07-11T08:38:42.115Z,75.87
2018-07-11T08:39:42.053Z,75.67
2018-07-11T08:40:41.995Z,75.29
2018-07-11T08:41:41.934Z,75.77
2018-07-11T08:42:41.874Z,75.67
2018-07-11T08:43:41.821Z,75.96
2018-07-11T08:44:41.761Z,75.48
2018-07-11T08:45:41.695Z,76.15
2018-07-11T08:46:41.639Z,75.10
2018-07-11T08:47:41.604Z,74.90
2018-07-11T08:48:41.522Z,74.90
2018-07-11T08:49:41.459Z,75.32
2018-07-11T08:50:41.399Z,74.37
2018-07-11T08:51:41.339Z,73.60
2018-07-11T08:52:41.279Z,73.41
2018-07-11T08:53:41.220Z,74.27
2018-07-11T08:54:41.161Z,73.60
2018-07-11T08:55:41.100Z,73.44
2018-07-11T08:56:41.042Z,72.96
2018-07-11T08:57:40.980Z,71.61
2018-07-11T08:58:40.921Z,72.19
2018-07-11T08:59:40.865Z,71.52
2018-07-11T09:00:40.804Z,72.19
2018-07-11T09:01:40.744Z,72.09
2018-07-11T09:02:40.723Z,72.09
2018-07-11T09:03:40.624Z,71.33
2018-07-11T09:04:40.575Z,72.19
2018-07-11T09:05:40.506Z,71.52
2018-07-11T09:06:40.462Z,71.23
2018-07-11T09:07:40.411Z,71.14
2018-07-11T09:08:40.338Z,72.77
2018-07-11T09:09:40.273Z,72.48
2018-07-11T09:10:40.301Z,72.00
2018-07-11T09:11:40.151Z,72.29
2018-07-11T09:12:40.093Z,72.00
2018-07-11T09:13:40.034Z,71.19
2018-07-11T09:14:39.987Z,71.77
2018-07-11T09:15:39.915Z,71.48
2018-07-11T09:16:39.859Z,71.19
2018-07-11T09:17:39.798Z,71.58
2018-07-11T09:18:39.737Z,71.39
2018-07-11T09:19:39.678Z,72.00
2018-07-11T09:20:39.620Z,71.42
2018-07-11T09:21:39.558Z,72.09
2018-07-11T09:22:39.500Z,72.25
2018-07-11T09:23:39.443Z,71.48
2018-07-11T09:24:39.383Z,71.48
2018-07-11T09:25:39.322Z,72.06
2018-07-11T09:26:39.263Z,72.25
2018-07-11T09:27:39.203Z,71.48
2018-07-11T09:28:39.148Z,72.06
2018-07-11T09:29:39.101Z,72.06
2018-07-11T09:30:39.053Z,71.58
2018-07-11T09:31:38.965Z,71.39
2018-07-11T09:32:38.907Z,71.29
2018-07-11T09:33:38.846Z,71.29
2018-07-11T09:34:38.788Z,70.90
2018-07-11T09:35:38.731Z,71.00
2018-07-11T09:36:38.669Z,71.10
2018-07-11T09:37:38.664Z,70.23
2018-07-11T09:38:38.558Z,70.14
2018-07-11T09:39:38.491Z,70.27
2018-07-11T09:40:38.442Z,69.60
2018-07-11T09:41:38.371Z,69.60
2018-07-11T09:42:38.310Z,68.96
2018-07-11T09:43:38.254Z,68.38
2018-07-11T09:44:38.193Z,68.51
2018-07-11T09:45:38.195Z,67.74
2018-07-11T09:46:38.077Z,66.78
2018-07-11T09:47:38.015Z,66.88
2018-07-11T09:48:37.958Z,67.07
2018-07-11T09:49:37.896Z,66.88
2018-07-11T09:50:37.837Z,65.91
2018-07-11T09:51:37.778Z,64.63
2018-07-11T09:52:37.720Z,65.40
2018-07-11T09:53:37.659Z,66.07
2018-07-11T09:54:37.600Z,66.27
2018-07-11T09:55:37.542Z,65.69
2018-07-11T09:56:37.483Z,65.69
2018-07-11T09:57:37.450Z,65.75
2018-07-11T09:58:37.365Z,66.04
2018-07-11T09:59:37.305Z,66.04
2018-07-11T10:00:37.246Z,66.71
2018-07-11T10:01:37.187Z,67.10
2018-07-11T10:02:37.128Z,67.68
2018-07-11T10:03:37.070Z,67.48
2018-07-11T10:04:37.011Z,67.00
2018-07-11T10:05:36.952Z,67.03
2018-07-11T10:06:36.892Z,67.03
2018-07-11T10:07:36.833Z,65.88
2018-07-11T10:08:36.781Z,65.69
2018-07-11T10:09:36.714Z,65.11
2018-07-11T10:10:36.657Z,66.17
2018-07-11T10:11:36.604Z,65.94
2018-07-11T10:12:36.666Z,67.00
2018-07-11T10:13:36.479Z,67.77
2018-07-11T10:14:36.419Z,67.38
2018-07-11T10:15:36.361Z,67.38
2018-07-11T10:16:36.302Z,66.94
2018-07-11T10:17:36.243Z,67.10
2018-07-11T10:18:36.185Z,66.84
2018-07-11T10:19:36.124Z,65.50
2018-07-11T10:20:36.065Z,65.01
2018-07-11T10:21:36.019Z,65.50
2018-07-11T10:22:35.946Z,66.17
2018-07-11T10:23:35.889Z,65.50
2018-07-11T10:24:35.829Z,65.50
2018-07-11T10:25:35.771Z,65.78
2018-07-11T10:26:35.718Z,66.27
2018-07-11T10:27:35.685Z,65.40
2018-07-11T10:28:35.632Z,65.78
2018-07-11T10:29:35.565Z,66.17
2018-07-11T10:30:35.502Z,66.07
2018-07-11T10:31:35.435Z,66.17
2018-07-11T10:32:35.384Z,66.46
2018-07-11T10:33:35.338Z,67.03
2018-07-11T10:34:35.269Z,66.94
2018-07-11T10:35:35.212Z,67.13
2018-07-11T10:36:35.156Z,66.36
2018-07-11T10:37:35.093Z,67.03
2018-07-11T10:38:35.033Z,67.32
2018-07-11T10:39:34.979Z,67.48
2018-07-11T10:40:34.913Z,67.48
2018-07-11T10:41:34.855Z,68.44
2018-07-11T10:42:34.768Z,68.15
2018-07-11T10:43:34.710Z,67.86
2018-07-11T10:44:34.651Z,69.12
2018-07-11T10:45:34.590Z,68.02
2018-07-11T10:46:34.531Z,68.51
2018-07-11T10:47:34.472Z,67.45
2018-07-11T10:48:34.412Z,68.51
2018-07-11T10:49:34.355Z,68.70
2018-07-11T10:50:34.318Z,68.79
2018-07-11T10:51:34.234Z,68.89
2018-07-11T10:52:34.176Z,68.98
2018-07-11T10:53:34.113Z,68.98
2018-07-11T10:54:34.057Z,68.51
2018-07-11T10:55:33.997Z,69.27
2018-07-11T10:56:33.936Z,69.56
2018-07-11T10:57:33.906Z,69.75
2018-07-11T10:58:33.817Z,69.18
2018-07-11T10:59:33.760Z,69.27
2018-07-11T11:00:36.661Z,69.66
2018-07-11T11:01:33.723Z,69.85
2018-07-11T11:02:33.596Z,70.62
2018-07-11T11:03:33.519Z,69.66
2018-07-11T11:04:33.460Z,70.43
2018-07-11T11:05:33.399Z,69.89
2018-07-11T11:06:33.341Z,68.79
2018-07-11T11:07:33.281Z,69.46
2018-07-11T11:08:33.222Z,69.60
2018-07-11T11:09:33.162Z,69.50
2018-07-11T11:10:33.102Z,69.79
2018-07-11T11:11:33.041Z,69.85
2018-07-11T11:12:32.984Z,69.21
2018-07-11T11:13:32.924Z,69.79
2018-07-11T11:14:32.920Z,69.40
2018-07-11T11:15:32.804Z,68.73
2018-07-11T11:16:32.748Z,67.48
2018-07-11T11:17:32.684Z,67.61
2018-07-11T11:18:32.625Z,67.80
2018-07-11T11:19:32.566Z,67.26
2018-07-11T11:20:32.507Z,65.91
2018-07-11T11:21:32.445Z,66.04
2018-07-11T11:22:32.387Z,64.98
2018-07-11T11:23:32.328Z,62.57
2018-07-11T11:24:32.268Z,62.03
2018-07-11T11:25:32.211Z,61.35
2018-07-11T11:26:32.153Z,61.35
2018-07-11T11:27:32.092Z,61.68
2018-07-11T11:28:32.031Z,61.68
2018-07-11T11:29:31.973Z,61.10
2018-07-11T11:30:31.916Z,60.42
2018-07-11T11:31:31.857Z,60.23
2018-07-11T11:32:31.796Z,60.80
2018-07-11T11:33:31.734Z,61.48
2018-07-11T11:34:31.681Z,61.48
2018-07-11T11:35:31.625Z,61.00
2018-07-11T11:36:31.564Z,59.94
2018-07-11T11:37:31.507Z,60.42
2018-07-11T11:38:31.444Z,60.13
2018-07-11T11:39:31.387Z,60.03
2018-07-11T11:40:31.328Z,60.39
2018-07-11T11:41:31.371Z,61.00
2018-07-11T11:42:31.464Z,60.87
2018-07-11T11:43:31.154Z,58.65
2018-07-11T11:44:31.095Z,60.49
2018-07-11T11:45:31.035Z,61.35
2018-07-11T11:46:30.977Z,61.65
2018-07-11T11:47:30.920Z,61.45
2018-07-11T11:48:30.862Z,60.97
2018-07-11T11:49:30.800Z,61.19
2018-07-11T11:50:30.745Z,59.94
2018-07-11T11:51:30.684Z,60.13
2018-07-11T11:52:30.627Z,60.13
2018-07-11T11:53:30.570Z,60.03
2018-07-11T11:54:30.513Z,60.03
2018-07-11T11:55:30.451Z,58.59
2018-07-11T11:56:30.396Z,58.01
2018-07-11T11:57:30.335Z,57.17
2018-07-11T11:58:30.332Z,55.34
2018-07-11T11:59:30.217Z,55.44
2018-07-11T12:00:30.160Z,56.01
2018-07-11T12:01:30.101Z,55.73
2018-07-11T12:02:30.043Z,55.63
2018-07-11T12:03:29.986Z,55.54
2018-07-11T12:04:29.927Z,55.82
2018-07-11T12:05:29.869Z,56.79
2018-07-11T12:06:29.808Z,56.98
2018-07-11T12:07:29.753Z,56.27
2018-07-11T12:08:29.695Z,55.60
2018-07-11T12:09:29.636Z,55.31
2018-07-11T12:10:29.584Z,56.66
2018-07-11T12:11:29.519Z,57.75
2018-07-11T12:12:29.464Z,57.46
2018-07-11T12:13:29.404Z,57.07
2018-07-11T12:14:29.345Z,55.85
2018-07-11T12:15:29.291Z,56.72
2018-07-11T12:16:29.233Z,57.01
2018-07-11T12:17:29.172Z,56.88
2018-07-11T12:18:29.121Z,56.30
2018-07-11T12:19:29.056Z,57.01
2018-07-11T12:20:28.997Z,56.88
2018-07-11T12:21:28.957Z,55.82
2018-07-11T12:22:28.883Z,55.15
2018-07-11T12:23:28.825Z,55.73
2018-07-11T12:24:28.770Z,55.24
2018-07-11T12:25:28.707Z,55.82
2018-07-11T12:26:28.650Z,56.79
2018-07-11T12:27:28.592Z,57.43
2018-07-11T12:28:28.533Z,57.92
2018-07-11T12:29:28.486Z,57.43
2018-07-11T12:30:28.419Z,57.62
2018-07-11T12:31:28.364Z,58.11
2018-07-11T12:32:28.303Z,57.92
2018-07-11T12:33:28.285Z,58.01
2018-07-11T12:34:28.186Z,58.01
2018-07-11T12:35:28.128Z,58.40
2018-07-11T12:36:28.070Z,58.69
2018-07-11T12:37:28.012Z,58.59
2018-07-11T12:38:27.954Z,58.59
2018-07-11T12:39:27.896Z,58.97
2018-07-11T12:40:27.838Z,59.14
2018-07-11T12:41:27.780Z,59.45
2018-07-11T12:42:27.724Z,59.17
2018-07-11T12:43:27.722Z,59.55
2018-07-11T12:44:27.606Z,59.55
2018-07-11T12:45:27.547Z,59.04
2018-07-11T12:46:27.489Z,59.62
2018-07-11T12:47:27.431Z,59.43
2018-07-11T12:48:27.374Z,60.36
2018-07-11T12:49:27.315Z,61.42
2018-07-11T12:50:27.255Z,61.04
2018-07-11T12:51:27.201Z,61.77